• Join FlightAware (Why Join?)
  • Login
  • US Flag 
07:51AM EST


 

Airport Tracker/Info


-or-


 

Live Flight TrackerFlight Track Log ✈ N43JM ✈ 04-May-2012 ✈ KHYA - KHPN

Flight Track Log - Related Links

Times and Time Zones

All times are in EDT time to prevent confusion due to time zone crossing. See the N43JM flight status page for this flight to view local times or setup timezone preferences in your user account.

Time Position Orientation Groundspeed Altitude Reporting Facility
EDT Latitude Longitude Course Direction KTS MPH feet Rate Location/Type
04:14PM 41.6590 -70.3481 244° Southwest  Level FlightAware Approximate
04:15PM 41.6506 -70.4022 240° Southwest  Level FlightAware Approximate
04:16PM 41.6667 -70.4508 224° Southwest  Level FlightAware Approximate
04:17PM 41.6699 -70.5057 204° Southwest  Level FlightAware Approximate
04:18PM 41.6609 -70.5597 178° South  Level FlightAware Approximate
04:19PM 41.6833 -70.6050 159° South  Level FlightAware Approximate
04:20PM 41.6738 -70.6588 139° Southeast  Level FlightAware Approximate
04:21PM 41.6643 -70.7126 124° Southeast  Level FlightAware Approximate
04:21PM 41.5844 -70.5556 283° West 140 161 6,000  Level Boston Center
04:22PM 41.5936 -70.6081 260° West 138 159 6,000 120 Level Boston Center
04:23PM 41.5861 -70.6667 256° West 148 170 6,300 180 Climbing Boston Center
04:24PM 41.5786 -70.7083 258° West 139 160 6,400 60 Climbing Boston Center
04:25PM 41.5689 -70.7697 257° West 144 166 6,500  Climbing Boston Center
04:27PM 41.5594 -70.8256 261° West 144 166 6,500  Level Boston Center
04:28PM 41.5539 -70.8728 259° West 144 166 6,500 -60 Level Boston Center
04:29PM 41.5461 -70.9283 256° West 149 171 6,400  Descending Boston Center
04:30PM 41.5364 -70.9814 260° West 148 170 6,500  Climbing Boston Center
04:31PM 41.5289 -71.0397 256° West 149 171 6,500 -60 Level Boston Center
04:32PM 41.5192 -71.0928 256° West 146 168 6,400 -60 Descending Boston Center
04:33PM 41.5094 -71.1456 259° West 149 171 6,400  Level Boston Center
04:34PM 41.5017 -71.2011 259° West 149 171 6,500  Climbing Boston Center
04:35PM 41.4939 -71.2539 259° West 149 171 6,500 -60 Level Boston Center
04:35PM 41.4861 -71.3067 257° West 151 174 6,400  Descending Boston Center
04:37PM 41.4761 -71.3622 257° West 153 176 6,500  Climbing Boston Center
04:38PM 41.4664 -71.4178 259° West 153 176 6,400  Descending Boston Center
04:39PM 41.4583 -71.4706 260° West 152 175 6,500  Climbing Boston Center
04:40PM 41.4506 -71.5289 257° West 152 175 6,400  Descending Boston Center
04:41PM 41.4406 -71.5844 257° West 150 173 6,500  Climbing Boston Center
04:42PM 41.4306 -71.6400 259° West 152 175 6,500  Level Boston Center
04:43PM 41.4225 -71.6953 259° West 153 176 6,500  Level Boston Center
04:44PM 41.4147 -71.7481 257° West 151 174 6,500  Level Boston Center
04:45PM 41.4044 -71.8092 258° West 153 176 6,500  Level Boston Center
04:46PM 41.3964 -71.8617 254° West 153 176 6,500  Level Boston Center
04:47PM 41.3842 -71.9200 256° West 153 176 6,500  Level Boston Center
04:48PM 41.3742 -71.9725 258° West 153 176 6,500  Level Boston Center
04:49PM 41.3658 -72.0253 259° West 152 175 6,500  Level Boston Center
04:50PM 41.3578 -72.0806 257° West 155 178 6,500  Level Boston Center
04:51PM 41.3475 -72.1414 255° West 152 175 6,500  Level Boston Center
04:52PM 41.3372 -72.1942 257° West 154 177 6,500  Level Boston Center
04:53PM 41.3269 -72.2522 259° West 152 175 6,500  Level Boston Center
04:54PM 41.3186 -72.3103 254° West 154 177 6,500  Level Boston Center
04:55PM 41.3083 -72.3572 263° West 159 183 6,500  Level Boston Center
04:56PM 41.3000 -72.4500 252° West 152 175 6,500  Level New York TRACON
04:57PM 41.2833 -72.5167 246° West 148 170 6,500  Level New York TRACON
04:58PM 41.2667 -72.5667 270° West 152 175 6,500  Level New York TRACON
04:59PM 41.2667 -72.6167 246° West 151 174 6,500  Level New York TRACON
05:00PM 41.2500 -72.6667 270° West 152 175 6,500  Level New York TRACON
05:01PM 41.2500 -72.7167 252° West 149 171 6,500  Level New York TRACON
05:02PM 41.2333 -72.7833 270° West 151 174 6,500  Level New York TRACON
05:03PM 41.2333 -72.8333 246° West 152 175 6,500  Level New York TRACON
05:04PM 41.2167 -72.8833 246° West 150 173 6,500  Level New York TRACON
05:05PM 41.2000 -72.9333 270° West 152 175 6,500  Level New York TRACON
05:07PM 41.2000 -73.0000 246° West 153 176 6,500 -60 Level New York TRACON
05:07PM 41.1833 -73.0500 270° West 155 178 6,400 -480 Descending New York TRACON
05:08PM 41.1833 -73.1167 246° West 171 197 5,700 -660 Descending New York TRACON
05:09PM 41.1667 -73.1667 252° West 165 190 5,100 -660 Descending New York TRACON
05:10PM 41.1500 -73.2333 270° West 160 184 4,400 -720 Descending New York TRACON
05:11PM 41.1500 -73.2833 246° West 157 181 3,700 -600 Descending New York TRACON
05:12PM 41.1333 -73.3333 252° West 155 178 3,300 -420 Descending New York TRACON
05:13PM 41.1167 -73.4000 270° West 156 180 2,900 -480 Descending New York TRACON
05:14PM 41.1167 -73.4500 252° West 159 183 2,400 -540 Descending New York TRACON
05:15PM 41.1000 -73.5167 252° West 159 183 1,900 -480 Descending New York TRACON